createdAt,value
2023-01-22T00:00:36.121Z,93924.41
2023-01-22T00:03:02.728Z,93918.28
2023-01-22T00:05:29.374Z,93920.75
2023-01-22T00:07:56.125Z,93934.03
2023-01-22T00:10:22.799Z,93945.56
2023-01-22T00:12:49.478Z,93933.03
2023-01-22T00:15:16.106Z,93930.34
2023-01-22T00:17:42.727Z,93910.88
2023-01-22T00:20:10.203Z,93915.09
2023-01-22T00:22:37.014Z,93911.41
2023-01-22T00:25:05.440Z,93929.94
2023-01-22T00:27:32.095Z,93937.28
2023-01-22T00:29:58.733Z,93935.69
2023-01-22T00:32:25.305Z,93932.63
2023-01-22T00:34:52.751Z,93936.59
2023-01-22T00:37:20.386Z,93934.66
2023-01-22T00:39:47.314Z,93933.44
2023-01-22T00:42:14.594Z,93929.84
2023-01-22T00:44:42.047Z,93925.31
2023-01-22T00:47:09.582Z,93933.66
2023-01-22T00:49:36.277Z,93932.03
2023-01-22T00:52:07.703Z,93940.31
2023-01-22T00:54:35.045Z,93945.50
2023-01-22T00:57:01.780Z,93954.44
2023-01-22T00:59:28.354Z,93953.88
2023-01-22T01:01:55.124Z,93955.25
2023-01-22T01:04:24.497Z,93947.44
2023-01-22T01:06:51.082Z,93953.59
2023-01-22T01:09:17.786Z,93957.66
2023-01-22T01:11:44.455Z,93969.44
2023-01-22T01:14:11.046Z,93969.38
2023-01-22T01:16:37.735Z,93970.59
2023-01-22T01:19:07.886Z,93978.63
2023-01-22T01:21:34.786Z,93983.84
2023-01-22T01:24:01.808Z,93988.22
2023-01-22T01:26:28.721Z,93998.91
2023-01-22T01:28:55.556Z,94008.47
2023-01-22T01:31:26.274Z,94005.38
2023-01-22T01:33:53.225Z,93994.28
2023-01-22T01:36:40.472Z,94001.84
2023-01-22T01:39:09.960Z,93998.47
2023-01-22T01:41:36.639Z,93998.56
2023-01-22T01:44:21.086Z,93995.56
2023-01-22T01:47:00.407Z,94003.47
2023-01-22T01:49:34.977Z,94001.84
2023-01-22T01:52:06.275Z,94009.84
2023-01-22T01:54:32.975Z,94010.19
2023-01-22T01:57:14.649Z,94004.84
2023-01-22T01:59:42.968Z,94003.56
2023-01-22T02:02:09.641Z,93995.28
2023-01-22T02:04:36.296Z,94000.28
2023-01-22T02:07:05.586Z,94009.00
2023-01-22T02:09:34.633Z,93997.94
2023-01-22T02:12:02.974Z,93990.78
2023-01-22T02:14:37.014Z,94000.53
2023-01-22T02:17:15.744Z,94009.56
2023-01-22T02:19:44.193Z,93999.84
2023-01-22T02:22:14.693Z,94002.34
2023-01-22T02:24:41.549Z,94002.94
2023-01-22T02:27:10.299Z,93999.81
2023-01-22T02:29:37.056Z,93994.63
2023-01-22T02:32:04.254Z,93990.53
2023-01-22T02:34:31.093Z,93989.66
2023-01-22T02:36:57.781Z,93990.06
2023-01-22T02:39:24.456Z,93997.97
2023-01-22T02:41:51.675Z,94000.84
2023-01-22T02:44:18.346Z,94010.47
2023-01-22T02:46:44.996Z,94016.13
2023-01-22T02:49:11.723Z,94009.19
2023-01-22T02:51:38.417Z,94018.88
2023-01-22T02:54:05.424Z,94014.16
2023-01-22T02:56:33.894Z,93996.59
2023-01-22T02:59:02.515Z,94002.06
2023-01-22T03:01:29.304Z,93996.16
2023-01-22T03:03:58.336Z,94005.47
2023-01-22T03:06:27.349Z,93996.09
2023-01-22T03:08:56.870Z,94000.03
2023-01-22T03:11:25.238Z,93993.91
2023-01-22T03:14:11.784Z,93993.69
2023-01-22T03:20:43.690Z,93989.28
2023-01-22T03:23:10.277Z,93996.59
2023-01-22T03:25:37.887Z,93993.69
2023-01-22T03:28:16.653Z,94007.84
2023-01-22T03:30:43.291Z,94014.66
2023-01-22T03:33:09.880Z,94006.56
2023-01-22T03:35:36.516Z,94020.03
2023-01-22T03:38:03.117Z,94012.22
2023-01-22T03:40:29.731Z,94016.28
2023-01-22T03:42:56.325Z,94016.63
2023-01-22T03:45:22.889Z,94018.47
2023-01-22T03:47:51.315Z,94028.19
2023-01-22T03:50:18.405Z,94025.03
2023-01-22T03:52:45.182Z,94016.94
2023-01-22T03:55:11.813Z,94019.50
2023-01-22T03:57:38.411Z,94023.28
2023-01-22T04:00:07.668Z,94026.56
2023-01-22T04:02:34.576Z,94021.31
2023-01-22T04:05:01.328Z,94024.13
2023-01-22T04:07:27.927Z,94020.19
2023-01-22T04:09:54.521Z,94026.19
2023-01-22T04:12:21.102Z,94026.66
2023-01-22T04:14:47.656Z,94024.66
2023-01-22T04:17:14.260Z,94031.34
2023-01-22T04:19:40.865Z,94032.66
2023-01-22T04:22:07.516Z,94033.88
2023-01-22T04:24:34.132Z,94035.56
2023-01-22T04:27:00.762Z,94051.25
2023-01-22T04:29:27.360Z,94054.94
2023-01-22T04:31:54.028Z,94059.78
2023-01-22T04:34:20.658Z,94064.72
2023-01-22T04:36:47.291Z,94068.19
2023-01-22T04:39:13.834Z,94078.16
2023-01-22T04:41:40.418Z,94062.94
2023-01-22T04:44:07.068Z,94073.28
2023-01-22T04:46:33.709Z,94076.41
2023-01-22T04:49:00.316Z,94071.25
2023-01-22T04:51:27.085Z,94075.75
2023-01-22T04:53:53.744Z,94079.06
2023-01-22T04:56:20.372Z,94086.16
2023-01-22T04:58:46.949Z,94098.09
2023-01-22T05:01:13.590Z,94098.75
2023-01-22T05:03:40.281Z,94100.94
2023-01-22T05:06:07.038Z,94098.16
2023-01-22T05:08:33.817Z,94110.34
2023-01-22T05:11:05.267Z,94111.81
2023-01-22T05:13:31.988Z,94113.47
2023-01-22T05:15:58.726Z,94118.94
2023-01-22T05:18:25.385Z,94132.03
2023-01-22T05:20:52.055Z,94138.38
2023-01-22T05:23:18.657Z,94145.88
2023-01-22T05:25:49.523Z,94144.47
2023-01-22T05:28:16.193Z,94142.38
2023-01-22T05:30:42.879Z,94148.16
2023-01-22T05:33:11.411Z,94154.56
2023-01-22T05:35:38.169Z,94149.59
2023-01-22T05:38:04.849Z,94158.81
2023-01-22T05:40:31.528Z,94165.91
2023-01-22T05:42:58.149Z,94166.19
2023-01-22T05:45:24.945Z,94175.22
2023-01-22T05:47:53.421Z,94171.56
2023-01-22T05:50:21.496Z,94183.13
2023-01-22T05:52:48.192Z,94181.53
2023-01-22T05:55:15.231Z,94194.66
2023-01-22T05:57:41.942Z,94190.50
2023-01-22T06:00:09.245Z,94196.19
2023-01-22T06:02:36.141Z,94196.94
2023-01-22T06:05:02.807Z,94196.53
2023-01-22T06:07:31.063Z,94200.81
2023-01-22T06:09:57.677Z,94206.84
2023-01-22T06:12:24.392Z,94216.88
2023-01-22T06:14:51.213Z,94215.88
2023-01-22T06:17:17.809Z,94225.53
2023-01-22T06:19:44.380Z,94223.44
2023-01-22T06:22:11.035Z,94225.22
2023-01-22T06:24:38.013Z,94228.31
2023-01-22T06:27:05.131Z,94244.22
2023-01-22T06:29:31.799Z,94239.00
2023-01-22T06:31:58.425Z,94241.19
2023-01-22T06:34:26.234Z,94249.44
2023-01-22T06:36:52.927Z,94249.56
2023-01-22T06:39:19.722Z,94250.88
2023-01-22T06:41:48.070Z,94240.28
2023-01-22T06:44:14.750Z,94252.44
2023-01-22T06:46:41.420Z,94253.31
2023-01-22T06:49:10.287Z,94259.75
2023-01-22T06:51:36.934Z,94262.44
2023-01-22T06:54:03.915Z,94264.44
2023-01-22T06:56:30.546Z,94270.00
2023-01-22T06:58:57.338Z,94270.44
2023-01-22T07:01:24.001Z,94272.63
2023-01-22T07:03:50.695Z,94274.22
2023-01-22T07:06:18.931Z,94274.31
2023-01-22T07:08:45.624Z,94280.44
2023-01-22T07:11:12.280Z,94277.22
2023-01-22T07:13:39.016Z,94286.00
2023-01-22T07:16:06.266Z,94285.88
2023-01-22T07:18:32.990Z,94279.22
2023-01-22T07:21:03.988Z,94287.22
2023-01-22T07:23:31.150Z,94283.19
2023-01-22T07:25:58.311Z,94289.88
2023-01-22T07:28:24.901Z,94286.06
2023-01-22T07:30:51.599Z,94294.53
2023-01-22T07:33:18.234Z,94296.75
2023-01-22T07:35:45.722Z,94297.72
2023-01-22T07:38:12.358Z,94296.31
2023-01-22T07:40:38.898Z,94298.97
2023-01-22T07:43:07.125Z,94300.97
2023-01-22T07:45:34.701Z,94302.75
2023-01-22T07:48:02.573Z,94310.56
2023-01-22T07:50:31.940Z,94293.41
2023-01-22T07:53:00.711Z,94297.19
2023-01-22T07:55:27.582Z,94290.72
2023-01-22T07:58:03.703Z,94289.94
2023-01-22T08:00:31.295Z,94291.72
2023-01-22T08:02:58.061Z,94289.81
2023-01-22T08:05:25.055Z,94293.97
2023-01-22T08:07:51.742Z,94290.72
2023-01-22T08:10:18.973Z,94301.63
2023-01-22T08:12:46.736Z,94298.72
2023-01-22T08:15:14.194Z,94297.16
2023-01-22T08:17:41.327Z,94304.06
2023-01-22T08:20:09.182Z,94293.66
2023-01-22T08:22:35.863Z,94308.25
2023-01-22T08:25:02.579Z,94310.91
2023-01-22T08:27:29.181Z,94317.13
2023-01-22T08:29:55.837Z,94314.16
2023-01-22T08:32:22.533Z,94312.34
2023-01-22T08:34:50.691Z,94315.16
2023-01-22T08:37:17.365Z,94312.53
2023-01-22T08:39:43.947Z,94319.44
2023-01-22T08:42:10.592Z,94315.41
2023-01-22T08:44:37.244Z,94318.69
2023-01-22T08:47:03.984Z,94321.88
2023-01-22T08:49:30.995Z,94321.66
2023-01-22T08:51:57.712Z,94320.09
2023-01-22T08:54:26.228Z,94315.31
2023-01-22T08:56:52.941Z,94323.91
2023-01-22T08:59:19.636Z,94315.34
2023-01-22T09:01:46.385Z,94316.53
2023-01-22T09:04:13.151Z,94321.91
2023-01-22T09:06:40.186Z,94308.47
2023-01-22T09:09:07.096Z,94322.63
2023-01-22T09:11:34.355Z,94319.44
2023-01-22T09:14:01.112Z,94317.69
2023-01-22T09:16:27.864Z,94320.38
2023-01-22T09:18:56.917Z,94320.56
2023-01-22T09:21:23.483Z,94319.88
2023-01-22T09:23:50.082Z,94326.84
2023-01-22T09:26:16.722Z,94323.81
2023-01-22T09:28:43.331Z,94326.66
2023-01-22T09:31:13.261Z,94318.97
2023-01-22T09:33:39.948Z,94326.69
2023-01-22T09:36:14.920Z,94326.28
2023-01-22T09:38:42.060Z,94324.66
2023-01-22T09:41:34.534Z,94328.09
2023-01-22T09:44:06.450Z,94319.63
2023-01-22T09:46:36.149Z,94326.72
2023-01-22T09:49:45.763Z,94320.69
2023-01-22T09:52:12.483Z,94318.38
2023-01-22T09:54:39.114Z,94307.44
2023-01-22T09:57:13.039Z,94321.44
2023-01-22T09:59:53.432Z,94317.19
2023-01-22T10:02:22.926Z,94304.84
2023-01-22T10:04:56.523Z,94316.78
2023-01-22T10:07:36.508Z,94314.53
2023-01-22T10:10:33.005Z,94311.94
2023-01-22T10:13:29.109Z,94311.63
2023-01-22T10:15:56.718Z,94310.13
2023-01-22T10:18:38.678Z,94313.78
2023-01-22T10:21:17.454Z,94308.75
2023-01-22T10:23:44.399Z,94306.94
2023-01-22T10:26:25.108Z,94311.34
2023-01-22T10:28:56.460Z,94315.84
2023-01-22T10:31:30.941Z,94310.78
2023-01-22T10:33:59.757Z,94314.44
2023-01-22T10:36:28.410Z,94309.13
2023-01-22T10:39:13.806Z,94311.53
2023-01-22T10:41:41.718Z,94310.47
2023-01-22T10:44:25.969Z,94318.25
2023-01-22T10:46:54.605Z,94308.41
2023-01-22T10:49:24.087Z,94317.94
2023-01-22T10:52:06.237Z,94302.94
2023-01-22T10:54:41.744Z,94307.56
2023-01-22T10:57:33.992Z,94311.66
2023-01-22T11:00:04.291Z,94298.19
2023-01-22T11:02:31.624Z,94289.88
2023-01-22T11:05:14.496Z,94298.56
2023-01-22T11:07:43.080Z,94304.97
2023-01-22T11:10:45.618Z,94298.97
2023-01-22T11:13:25.240Z,94309.63
2023-01-22T11:16:05.434Z,94303.56
2023-01-22T11:18:36.552Z,94306.25
2023-01-22T11:21:14.428Z,94304.19
2023-01-22T11:23:40.985Z,94304.13
2023-01-22T11:26:13.342Z,94302.84
2023-01-22T11:28:54.892Z,94294.19
2023-01-22T11:31:37.698Z,94296.38
2023-01-22T11:34:16.407Z,94293.34
2023-01-22T11:36:54.191Z,94302.50
2023-01-22T11:39:35.651Z,94308.94
2023-01-22T11:42:23.739Z,94304.91
2023-01-22T11:45:10.492Z,94295.03
2023-01-22T11:48:04.221Z,94308.59
2023-01-22T11:50:34.093Z,94297.09
2023-01-22T11:53:16.642Z,94300.13
2023-01-22T11:55:55.202Z,94304.75
2023-01-22T11:58:43.885Z,94307.16
2023-01-22T12:01:24.107Z,94307.72
2023-01-22T12:04:12.688Z,94301.47
2023-01-22T12:07:03.896Z,94309.38
2023-01-22T12:09:36.316Z,94305.19
2023-01-22T12:12:05.845Z,94311.16
2023-01-22T12:14:38.616Z,94293.41
2023-01-22T12:17:25.670Z,94288.69
2023-01-22T12:19:52.229Z,94304.56
2023-01-22T12:22:24.416Z,94300.28
2023-01-22T12:25:03.094Z,94299.41
2023-01-22T12:27:36.948Z,94303.63
2023-01-22T12:30:19.972Z,94303.13
2023-01-22T12:32:53.327Z,94308.69
2023-01-22T12:35:21.920Z,94308.13
2023-01-22T12:38:26.917Z,94313.56
2023-01-22T12:41:28.726Z,94311.66
2023-01-22T12:44:05.062Z,94305.53
2023-01-22T12:47:02.783Z,94308.09
2023-01-22T12:49:49.493Z,94323.00
2023-01-22T12:52:42.641Z,94324.81
2023-01-22T12:55:29.729Z,94316.38
2023-01-22T12:57:56.744Z,94316.78
2023-01-22T13:00:34.903Z,94314.84
2023-01-22T13:03:30.925Z,94322.41
2023-01-22T13:05:59.794Z,94326.84
2023-01-22T13:08:46.909Z,94322.03
2023-01-22T13:11:27.968Z,94321.44
2023-01-22T13:14:09.973Z,94318.09
2023-01-22T13:16:41.757Z,94331.78
2023-01-22T13:19:21.585Z,94329.81
2023-01-22T13:21:49.145Z,94334.25
2023-01-22T13:24:21.350Z,94327.00
2023-01-22T13:27:00.470Z,94330.28
2023-01-22T13:29:37.858Z,94327.66
2023-01-22T13:32:18.515Z,94325.06
2023-01-22T13:34:45.162Z,94328.63
2023-01-22T13:37:28.489Z,94326.53
2023-01-22T13:39:55.223Z,94326.97
2023-01-22T13:42:24.723Z,94323.06
2023-01-22T13:44:52.233Z,94325.56
2023-01-22T13:47:35.605Z,94334.53
2023-01-22T13:50:02.704Z,94339.44
2023-01-22T13:52:29.736Z,94335.16
2023-01-22T13:55:12.179Z,94339.13
2023-01-22T13:57:54.414Z,94331.47
2023-01-22T14:00:42.366Z,94341.16
2023-01-22T14:03:30.105Z,94335.75
2023-01-22T14:06:03.776Z,94341.56
2023-01-22T14:08:30.663Z,94341.16
2023-01-22T14:10:59.307Z,94342.34
2023-01-22T14:13:25.992Z,94348.69
2023-01-22T14:15:59.532Z,94338.69
2023-01-22T14:18:30.394Z,94355.72
2023-01-22T14:20:57.066Z,94355.72
2023-01-22T14:23:23.740Z,94347.78
2023-01-22T14:25:52.607Z,94355.44
2023-01-22T14:28:21.729Z,94350.69
2023-01-22T14:30:48.900Z,94349.22
2023-01-22T14:33:24.178Z,94350.84
2023-01-22T14:35:52.170Z,94355.19
2023-01-22T14:38:19.074Z,94352.97
2023-01-22T14:40:46.313Z,94361.16
2023-01-22T14:43:13.063Z,94362.22
2023-01-22T14:45:40.954Z,94359.84
2023-01-22T14:48:11.492Z,94359.16
2023-01-22T14:50:39.409Z,94358.50
2023-01-22T14:53:06.238Z,94353.47
2023-01-22T14:55:33.383Z,94357.78
2023-01-22T14:58:02.526Z,94358.38
2023-01-22T15:00:30.156Z,94344.09
2023-01-22T15:02:58.028Z,94355.44
2023-01-22T15:05:25.749Z,94352.59
2023-01-22T15:07:52.653Z,94347.72
2023-01-22T15:10:20.238Z,94343.06
2023-01-22T15:12:52.213Z,94348.56
2023-01-22T15:15:26.308Z,94363.00
2023-01-22T15:17:55.857Z,94371.44
2023-01-22T15:20:22.902Z,94370.13
2023-01-22T15:22:50.046Z,94373.28
2023-01-22T15:25:17.330Z,94382.06
2023-01-22T15:27:48.420Z,94374.03
2023-01-22T15:30:22.814Z,94379.22
2023-01-22T15:32:49.502Z,94386.06
2023-01-22T15:35:16.289Z,94384.63
2023-01-22T15:37:43.109Z,94391.63
2023-01-22T15:40:13.988Z,94397.00
2023-01-22T15:42:40.630Z,94386.09
2023-01-22T15:45:07.948Z,94397.91
2023-01-22T15:47:34.661Z,94391.88
2023-01-22T15:50:04.398Z,94384.34
2023-01-22T15:52:46.122Z,94381.94
2023-01-22T15:55:12.756Z,94382.22
2023-01-22T15:57:40.034Z,94385.94
2023-01-22T16:00:07.304Z,94383.03
2023-01-22T16:02:34.060Z,94389.47
2023-01-22T16:05:31.741Z,94396.19
2023-01-22T16:07:58.300Z,94394.50
2023-01-22T16:10:31.372Z,94391.97
2023-01-22T16:13:07.076Z,94391.78
2023-01-22T16:15:33.996Z,94392.25
2023-01-22T16:18:03.632Z,94396.81
2023-01-22T16:20:30.433Z,94393.06
2023-01-22T16:22:57.030Z,94391.69
2023-01-22T16:25:23.658Z,94389.50
2023-01-22T16:27:50.283Z,94393.41
2023-01-22T16:30:17.447Z,94394.25
2023-01-22T16:32:46.154Z,94399.38
2023-01-22T16:35:12.777Z,94386.72
2023-01-22T16:37:39.377Z,94395.09
2023-01-22T16:40:07.401Z,94396.50
2023-01-22T16:42:35.840Z,94397.28
2023-01-22T16:45:02.637Z,94400.94
2023-01-22T16:47:29.227Z,94400.34
2023-01-22T16:49:55.878Z,94406.75
2023-01-22T16:52:23.253Z,94415.22
2023-01-22T16:54:50.637Z,94412.50
2023-01-22T16:57:19.339Z,94422.00
2023-01-22T16:59:46.265Z,94416.03
2023-01-22T17:02:14.862Z,94424.81
2023-01-22T17:04:41.582Z,94422.13
2023-01-22T17:07:13.553Z,94420.16
2023-01-22T17:09:47.611Z,94421.31
2023-01-22T17:12:14.457Z,94422.06
2023-01-22T17:14:41.122Z,94427.50
2023-01-22T17:17:08.876Z,94418.84
2023-01-22T17:19:36.362Z,94425.78
2023-01-22T17:22:04.167Z,94426.16
2023-01-22T17:24:31.582Z,94424.00
2023-01-22T17:26:58.423Z,94428.25
2023-01-22T17:29:25.787Z,94423.22
2023-01-22T17:31:52.538Z,94429.78
2023-01-22T17:34:19.204Z,94435.09
2023-01-22T17:36:45.880Z,94435.91
2023-01-22T17:39:15.762Z,94440.44
2023-01-22T17:41:42.987Z,94446.78
2023-01-22T17:44:09.938Z,94443.94
2023-01-22T17:46:36.878Z,94453.50
2023-01-22T17:49:04.777Z,94450.13
2023-01-22T17:51:33.784Z,94467.25
2023-01-22T17:54:02.338Z,94465.38
2023-01-22T17:56:37.795Z,94472.22
2023-01-22T17:59:06.292Z,94479.75
2023-01-22T18:01:35.198Z,94484.69
2023-01-22T18:04:04.986Z,94489.41
2023-01-22T18:06:32.134Z,94490.31
2023-01-22T18:08:58.874Z,94488.75
2023-01-22T18:11:28.077Z,94497.31
2023-01-22T18:13:59.941Z,94508.47
2023-01-22T18:16:29.492Z,94505.06
2023-01-22T18:18:58.346Z,94498.41
2023-01-22T18:21:25.545Z,94497.75
2023-01-22T18:23:53.094Z,94500.88
2023-01-22T18:26:23.026Z,94500.31
2023-01-22T18:28:51.093Z,94502.44
2023-01-22T18:31:22.392Z,94507.53
2023-01-22T18:33:49.321Z,94506.41
2023-01-22T18:36:32.187Z,94511.75
2023-01-22T18:39:01.268Z,94501.19
2023-01-22T18:41:28.305Z,94503.75
2023-01-22T18:43:59.748Z,94504.16
2023-01-22T18:46:48.588Z,94498.16
2023-01-22T18:49:18.824Z,94507.09
2023-01-22T18:51:46.377Z,94513.13
2023-01-22T18:54:13.414Z,94514.34
2023-01-22T18:56:42.944Z,94519.91
2023-01-22T18:59:09.665Z,94517.69
2023-01-22T19:01:38.420Z,94523.78
2023-01-22T19:04:09.207Z,94519.91
2023-01-22T19:06:38.630Z,94530.69
2023-01-22T19:09:09.791Z,94522.25
2023-01-22T19:11:39.244Z,94534.59
2023-01-22T19:14:07.281Z,94532.59
2023-01-22T19:16:35.338Z,94528.03
2023-01-22T19:19:07.836Z,94523.25
2023-01-22T19:21:34.511Z,94521.47
2023-01-22T19:24:02.275Z,94523.97
2023-01-22T19:26:36.245Z,94520.78
2023-01-22T19:29:06.795Z,94517.63
2023-01-22T19:31:37.954Z,94513.06
2023-01-22T19:34:05.978Z,94511.38
2023-01-22T19:36:34.869Z,94520.69
2023-01-22T19:39:03.736Z,94524.00
2023-01-22T19:41:30.636Z,94516.75
2023-01-22T19:44:00.747Z,94521.06
2023-01-22T19:46:27.861Z,94518.69
2023-01-22T19:48:55.141Z,94521.94
2023-01-22T19:51:22.975Z,94508.56
2023-01-22T19:53:50.009Z,94514.56
2023-01-22T19:56:23.443Z,94515.88
2023-01-22T19:58:51.439Z,94513.84
2023-01-22T20:01:18.378Z,94505.53
2023-01-22T20:03:45.230Z,94508.41
2023-01-22T20:06:13.435Z,94508.50
2023-01-22T20:08:40.757Z,94505.13
2023-01-22T20:11:09.524Z,94500.09
2023-01-22T20:13:37.720Z,94498.94
2023-01-22T20:16:05.401Z,94499.31
2023-01-22T20:18:33.101Z,94503.97
2023-01-22T20:21:04.890Z,94512.03
2023-01-22T20:23:31.796Z,94504.09
2023-01-22T20:26:00.609Z,94494.88
2023-01-22T20:28:27.284Z,94501.19
2023-01-22T20:31:04.141Z,94505.88
2023-01-22T20:33:33.375Z,94501.09
2023-01-22T20:36:02.669Z,94496.75
2023-01-22T20:38:29.437Z,94493.88
2023-01-22T20:41:02.297Z,94496.34
2023-01-22T20:43:29.239Z,94496.84
2023-01-22T20:46:16.881Z,94492.28
2023-01-22T20:48:47.367Z,94493.19
2023-01-22T20:51:19.529Z,94494.75
2023-01-22T20:53:47.367Z,94490.41
2023-01-22T20:56:22.774Z,94483.38
2023-01-22T20:58:55.644Z,94489.16
2023-01-22T21:01:22.400Z,94491.63
2023-01-22T21:03:49.302Z,94498.06
2023-01-22T21:06:17.969Z,94500.34
2023-01-22T21:08:49.231Z,94496.56
2023-01-22T21:11:20.420Z,94501.22
2023-01-22T21:13:58.625Z,94499.19
2023-01-22T21:16:29.687Z,94503.88
2023-01-22T21:19:03.081Z,94508.50
2023-01-22T21:21:31.364Z,94516.88
2023-01-22T21:23:59.067Z,94512.34
2023-01-22T21:26:29.752Z,94510.00
2023-01-22T21:29:02.652Z,94508.75
2023-01-22T21:31:29.771Z,94513.34
2023-01-22T21:34:02.678Z,94514.09
2023-01-22T21:36:40.950Z,94505.75
2023-01-22T21:39:10.003Z,94512.09
2023-01-22T21:41:38.225Z,94510.50
2023-01-22T21:44:24.504Z,94509.41
2023-01-22T21:46:51.147Z,94502.50
2023-01-22T21:49:23.346Z,94506.06
2023-01-22T21:51:52.751Z,94519.44
2023-01-22T21:54:25.239Z,94521.91
2023-01-22T21:56:52.623Z,94511.56
2023-01-22T21:59:19.393Z,94514.75
2023-01-22T22:01:46.836Z,94513.75
2023-01-22T22:04:15.074Z,94509.00
2023-01-22T22:06:42.213Z,94507.06
2023-01-22T22:09:14.471Z,94507.19
2023-01-22T22:11:41.636Z,94513.09
2023-01-22T22:14:11.269Z,94515.09
2023-01-22T22:16:37.975Z,94505.16
2023-01-22T22:19:04.632Z,94511.28
2023-01-22T22:21:31.262Z,94511.59
2023-01-22T22:23:58.280Z,94511.94
2023-01-22T22:26:25.936Z,94509.66
2023-01-22T22:28:52.882Z,94499.78
2023-01-22T22:31:20.319Z,94507.84
2023-01-22T22:33:49.769Z,94497.00
2023-01-22T22:36:18.259Z,94497.44
2023-01-22T22:38:45.226Z,94511.88
2023-01-22T22:41:15.197Z,94496.75
2023-01-22T22:43:44.497Z,94500.09
2023-01-22T22:46:17.965Z,94493.72
2023-01-22T22:48:45.981Z,94486.41
2023-01-22T22:51:18.548Z,94489.41
2023-01-22T22:53:45.630Z,94485.19
2023-01-22T22:56:13.287Z,94491.56
2023-01-22T22:58:40.024Z,94483.13
2023-01-22T23:01:19.816Z,94477.41
2023-01-22T23:03:46.569Z,94486.19
2023-01-22T23:06:17.647Z,94485.72
2023-01-22T23:08:47.614Z,94478.84
2023-01-22T23:11:15.831Z,94484.06
2023-01-22T23:13:48.190Z,94481.59
2023-01-22T23:16:18.349Z,94485.41
2023-01-22T23:18:46.277Z,94493.41
2023-01-22T23:21:15.457Z,94489.50
2023-01-22T23:23:42.363Z,94492.00
2023-01-22T23:26:11.863Z,94510.00
2023-01-22T23:28:38.861Z,94518.41
2023-01-22T23:31:07.306Z,94511.00
2023-01-22T23:33:34.023Z,94513.09
2023-01-22T23:36:10.288Z,94506.56
2023-01-22T23:38:37.459Z,94502.09
2023-01-22T23:41:06.006Z,94506.72
2023-01-22T23:43:33.406Z,94502.50
2023-01-22T23:46:00.795Z,94494.31
2023-01-22T23:48:28.087Z,94487.72
2023-01-22T23:50:54.988Z,94485.06
2023-01-22T23:53:25.064Z,94495.34
2023-01-22T23:56:14.863Z,94491.44
2023-01-22T23:58:45.028Z,94498.91
